createdAt,value
2018-09-04T00:00:54.045Z,0.00
2018-09-04T00:01:54.059Z,0.00
2018-09-04T00:02:54.031Z,0.00
2018-09-04T00:03:54.015Z,0.00
2018-09-04T00:04:54.004Z,0.00
2018-09-04T00:05:53.991Z,0.00
2018-09-04T00:06:54.003Z,0.00
2018-09-04T00:07:53.971Z,0.00
2018-09-04T00:08:53.956Z,0.00
2018-09-04T00:09:53.945Z,0.00
2018-09-04T00:10:53.933Z,0.00
2018-09-04T00:11:53.947Z,0.00
2018-09-04T00:12:53.912Z,0.00
2018-09-04T00:13:53.900Z,0.00
2018-09-04T00:14:53.889Z,0.00
2018-09-04T00:15:53.877Z,0.00
2018-09-04T00:16:53.893Z,0.00
2018-09-04T00:17:53.855Z,0.00
2018-09-04T00:18:53.842Z,0.00
2018-09-04T00:19:53.835Z,0.00
2018-09-04T00:20:53.820Z,0.00
2018-09-04T00:21:53.835Z,0.00
2018-09-04T00:22:53.801Z,0.00
2018-09-04T00:23:53.788Z,0.00
2018-09-04T00:24:53.777Z,0.00
2018-09-04T00:25:53.767Z,0.00
2018-09-04T00:26:53.756Z,0.00
2018-09-04T00:27:53.767Z,0.00
2018-09-04T00:28:53.731Z,0.00
2018-09-04T00:29:53.720Z,0.00
2018-09-04T00:30:53.710Z,0.00
2018-09-04T00:31:53.701Z,0.00
2018-09-04T00:32:53.713Z,0.00
2018-09-04T00:33:53.676Z,0.00
2018-09-04T00:34:53.667Z,0.00
2018-09-04T00:35:53.654Z,0.00
2018-09-04T00:36:53.645Z,0.00
2018-09-04T00:37:53.655Z,0.00
2018-09-04T00:38:53.621Z,0.00
2018-09-04T00:39:53.613Z,0.00
2018-09-04T00:40:53.598Z,0.00
2018-09-04T00:41:53.590Z,0.00
2018-09-04T00:42:53.602Z,0.00
2018-09-04T00:43:53.565Z,0.00
2018-09-04T00:44:53.555Z,0.00
2018-09-04T00:45:53.543Z,0.00
2018-09-04T00:46:53.535Z,0.00
2018-09-04T00:47:53.546Z,0.00
2018-09-04T00:48:53.509Z,0.00
2018-09-04T00:49:53.498Z,0.00
2018-09-04T00:50:53.486Z,0.00
2018-09-04T00:51:53.478Z,0.00
2018-09-04T00:52:53.492Z,0.00
2018-09-04T00:53:53.453Z,0.00
2018-09-04T00:54:53.442Z,0.00
2018-09-04T00:55:53.431Z,0.00
2018-09-04T00:56:53.421Z,0.00
2018-09-04T00:57:53.436Z,0.00
2018-09-04T00:58:53.462Z,0.00
2018-09-04T00:59:53.386Z,0.00
2018-09-04T01:00:53.375Z,0.00
2018-09-04T01:01:53.365Z,0.00
2018-09-04T01:02:53.378Z,0.00
2018-09-04T01:03:53.341Z,0.00
2018-09-04T01:04:53.332Z,0.00
2018-09-04T01:05:53.320Z,0.00
2018-09-04T01:06:53.309Z,0.00
2018-09-04T01:07:53.323Z,0.00
2018-09-04T01:08:53.288Z,0.00
2018-09-04T01:09:53.279Z,0.00
2018-09-04T01:10:53.266Z,0.00
2018-09-04T01:11:53.255Z,0.00
2018-09-04T01:12:53.267Z,0.00
2018-09-04T01:13:53.236Z,0.00
2018-09-04T01:14:53.220Z,0.00
2018-09-04T01:15:53.215Z,0.00
2018-09-04T01:16:53.199Z,0.00
2018-09-04T01:17:53.211Z,0.00
2018-09-04T01:18:53.175Z,0.00
2018-09-04T01:19:53.166Z,0.00
2018-09-04T01:20:53.154Z,0.00
2018-09-04T01:21:53.143Z,0.00
2018-09-04T01:22:53.161Z,0.00
2018-09-04T01:23:53.126Z,0.00
2018-09-04T01:24:53.108Z,0.00
2018-09-04T01:25:53.099Z,0.00
2018-09-04T01:26:53.087Z,0.00
2018-09-04T01:27:53.100Z,0.00
2018-09-04T01:28:53.065Z,0.00
2018-09-04T01:29:53.053Z,0.00
2018-09-04T01:30:53.042Z,0.00
2018-09-04T01:31:53.030Z,0.00
2018-09-04T01:32:53.051Z,0.00
2018-09-04T01:33:53.011Z,0.00
2018-09-04T01:34:52.997Z,0.00
2018-09-04T01:35:52.986Z,0.00
2018-09-04T01:36:52.975Z,0.00
2018-09-04T01:37:52.990Z,0.00
2018-09-04T01:38:52.952Z,0.00
2018-09-04T01:39:52.945Z,0.00
2018-09-04T01:40:52.930Z,0.00
2018-09-04T01:41:52.923Z,0.00
2018-09-04T01:42:52.934Z,0.00
2018-09-04T01:43:52.897Z,0.00
2018-09-04T01:44:52.888Z,0.00
2018-09-04T01:45:52.877Z,0.00
2018-09-04T01:46:52.866Z,0.00
2018-09-04T01:47:52.879Z,0.00
2018-09-04T01:48:52.842Z,0.00
2018-09-04T01:49:52.831Z,0.00
2018-09-04T01:50:52.820Z,0.00
2018-09-04T01:51:52.810Z,0.00
2018-09-04T01:52:52.823Z,0.00
2018-09-04T01:53:52.788Z,0.00
2018-09-04T01:54:52.776Z,0.00
2018-09-04T01:55:52.766Z,0.00
2018-09-04T01:56:52.754Z,0.00
2018-09-04T01:57:52.766Z,0.00
2018-09-04T01:58:52.731Z,0.00
2018-09-04T01:59:52.722Z,0.00
2018-09-04T02:00:52.709Z,0.00
2018-09-04T02:01:52.698Z,0.00
2018-09-04T02:02:52.713Z,0.00
2018-09-04T02:03:52.677Z,0.00
2018-09-04T02:04:52.666Z,0.00
2018-09-04T02:05:52.653Z,0.00
2018-09-04T02:06:52.642Z,0.00
2018-09-04T02:07:52.634Z,0.00
2018-09-04T02:08:52.644Z,0.00
2018-09-04T02:09:52.608Z,0.00
2018-09-04T02:10:52.597Z,0.00
2018-09-04T02:11:52.586Z,0.00
2018-09-04T02:12:52.576Z,0.00
2018-09-04T02:13:52.590Z,0.00
2018-09-04T02:14:52.555Z,0.00
2018-09-04T02:15:52.542Z,0.00
2018-09-04T02:16:52.532Z,0.00
2018-09-04T02:17:52.523Z,0.00
2018-09-04T02:18:52.534Z,0.00
2018-09-04T02:19:52.497Z,0.00
2018-09-04T02:20:52.488Z,0.00
2018-09-04T02:21:52.476Z,0.00
2018-09-04T02:22:52.468Z,0.00
2018-09-04T02:23:52.478Z,0.00
2018-09-04T02:24:52.443Z,0.00
2018-09-04T02:25:52.431Z,0.00
2018-09-04T02:26:52.420Z,0.00
2018-09-04T02:27:52.413Z,0.00
2018-09-04T02:28:52.423Z,0.00
2018-09-04T02:29:52.387Z,0.00
2018-09-04T02:30:52.376Z,0.00
2018-09-04T02:31:52.366Z,0.00
2018-09-04T02:32:52.357Z,0.00
2018-09-04T02:33:52.367Z,0.00
2018-09-04T02:34:52.332Z,0.00
2018-09-04T02:35:52.320Z,0.00
2018-09-04T02:36:52.310Z,0.00
2018-09-04T02:37:52.298Z,0.00
2018-09-04T02:38:52.312Z,0.00
2018-09-04T02:39:52.278Z,0.00
2018-09-04T02:40:52.267Z,0.00
2018-09-04T02:41:52.254Z,0.00
2018-09-04T02:42:52.245Z,0.00
2018-09-04T02:43:52.256Z,0.00
2018-09-04T02:44:52.220Z,0.00
2018-09-04T02:45:52.209Z,0.00
2018-09-04T02:46:52.198Z,0.00
2018-09-04T02:47:52.187Z,0.00
2018-09-04T02:48:52.200Z,0.00
2018-09-04T02:49:52.168Z,0.00
2018-09-04T02:50:52.160Z,0.00
2018-09-04T02:51:52.143Z,0.00
2018-09-04T02:52:52.143Z,0.00
2018-09-04T02:53:52.145Z,0.00
2018-09-04T02:54:52.110Z,0.00
2018-09-04T02:55:52.098Z,0.00
2018-09-04T02:56:52.088Z,0.00
2018-09-04T02:57:52.078Z,0.00
2018-09-04T02:58:52.090Z,0.00
2018-09-04T02:59:52.054Z,0.00
2018-09-04T03:00:52.045Z,0.00
2018-09-04T03:01:52.033Z,0.00
2018-09-04T03:02:52.021Z,0.00
2018-09-04T03:03:52.035Z,0.00
2018-09-04T03:04:52.002Z,0.00
2018-09-04T03:05:51.988Z,0.00
2018-09-04T03:06:51.976Z,0.00
2018-09-04T03:07:51.967Z,0.00
2018-09-04T03:08:51.979Z,0.00
2018-09-04T03:09:51.944Z,0.00
2018-09-04T03:10:51.932Z,0.00
2018-09-04T03:11:51.922Z,0.00
2018-09-04T03:12:51.910Z,0.00
2018-09-04T03:13:52.006Z,0.00
2018-09-04T03:14:51.887Z,0.00
2018-09-04T03:15:51.881Z,0.00
2018-09-04T03:16:51.866Z,0.00
2018-09-04T03:17:51.855Z,0.00
2018-09-04T03:18:51.867Z,0.00
2018-09-04T03:19:51.835Z,0.00
2018-09-04T03:20:51.821Z,0.00
2018-09-04T03:21:51.810Z,0.00
2018-09-04T03:22:51.797Z,0.00
2018-09-04T03:23:51.813Z,0.00
2018-09-04T03:24:51.776Z,0.00
2018-09-04T03:25:51.766Z,0.00
2018-09-04T03:26:51.756Z,0.00
2018-09-04T03:27:51.743Z,0.00
2018-09-04T03:28:51.757Z,0.00
2018-09-04T03:29:51.723Z,0.00
2018-09-04T03:30:51.717Z,0.00
2018-09-04T03:31:51.699Z,0.00
2018-09-04T03:32:51.688Z,0.00
2018-09-04T03:33:51.702Z,0.00
2018-09-04T03:34:51.665Z,0.00
2018-09-04T03:35:51.654Z,0.00
2018-09-04T03:36:51.643Z,0.00
2018-09-04T03:37:51.632Z,0.00
2018-09-04T03:38:51.644Z,0.00
2018-09-04T03:39:51.611Z,0.00
2018-09-04T03:40:51.601Z,0.00
2018-09-04T03:41:51.587Z,0.00
2018-09-04T03:42:51.577Z,0.00
2018-09-04T03:43:51.592Z,0.00
2018-09-04T03:44:51.554Z,0.00
2018-09-04T03:45:51.563Z,0.00
2018-09-04T03:46:51.532Z,0.00
2018-09-04T03:47:51.521Z,0.00
2018-09-04T03:48:51.512Z,0.00
2018-09-04T03:49:51.523Z,0.00
2018-09-04T03:50:51.487Z,0.00
2018-09-04T03:51:51.476Z,0.00
2018-09-04T03:52:51.467Z,0.00
2018-09-04T03:53:51.457Z,0.00
2018-09-04T03:54:51.466Z,0.00
2018-09-04T03:55:51.431Z,0.00
2018-09-04T03:56:51.421Z,0.00
2018-09-04T03:57:51.409Z,0.00
2018-09-04T03:58:51.400Z,0.00
2018-09-04T03:59:51.411Z,0.00
2018-09-04T04:00:51.379Z,0.00
2018-09-04T04:01:51.367Z,0.00
2018-09-04T04:02:51.356Z,0.00
2018-09-04T04:03:51.370Z,0.00
2018-09-04T04:04:51.358Z,0.00
2018-09-04T04:05:51.320Z,0.00
2018-09-04T04:06:51.311Z,0.00
2018-09-04T04:07:51.301Z,0.00
2018-09-04T04:08:51.288Z,0.00
2018-09-04T04:09:51.305Z,0.00
2018-09-04T04:10:51.268Z,0.00
2018-09-04T04:11:51.297Z,0.00
2018-09-04T04:12:51.243Z,0.00
2018-09-04T04:13:51.231Z,0.00
2018-09-04T04:14:51.243Z,0.00
2018-09-04T04:15:51.211Z,0.00
2018-09-04T04:16:51.204Z,0.00
2018-09-04T04:17:51.186Z,0.00
2018-09-04T04:18:51.179Z,0.00
2018-09-04T04:19:51.190Z,0.00
2018-09-04T04:20:51.153Z,0.00
2018-09-04T04:21:51.141Z,0.00
2018-09-04T04:22:51.130Z,0.00
2018-09-04T04:23:51.186Z,0.00
2018-09-04T04:24:51.133Z,4.00
2018-09-04T04:25:51.097Z,4.00
2018-09-04T04:26:51.085Z,4.00
2018-09-04T04:27:51.076Z,4.00
2018-09-04T04:28:51.065Z,4.00
2018-09-04T04:29:51.076Z,8.00
2018-09-04T04:30:51.041Z,8.00
2018-09-04T04:31:51.031Z,8.00
2018-09-04T04:32:51.019Z,12.00
2018-09-04T04:33:51.007Z,12.00
2018-09-04T04:34:50.998Z,12.00
2018-09-04T04:35:51.012Z,16.00
2018-09-04T04:36:50.974Z,16.00
2018-09-04T04:37:50.964Z,20.00
2018-09-04T04:38:50.953Z,24.00
2018-09-04T04:39:50.984Z,28.00
2018-09-04T04:40:50.931Z,36.00
2018-09-04T04:41:50.918Z,40.00
2018-09-04T04:42:50.907Z,44.00
2018-09-04T04:43:50.895Z,52.00
2018-09-04T04:44:50.888Z,52.00
2018-09-04T04:45:50.898Z,64.00
2018-09-04T04:46:50.864Z,72.00
2018-09-04T04:47:50.912Z,80.00
2018-09-04T04:48:50.841Z,88.00
2018-09-04T04:49:50.832Z,96.00
2018-09-04T04:50:50.843Z,104.00
2018-09-04T04:51:50.807Z,116.00
2018-09-04T04:52:50.799Z,128.00
2018-09-04T04:53:50.786Z,140.00
2018-09-04T04:54:50.777Z,148.00
2018-09-04T04:55:50.790Z,160.00
2018-09-04T04:56:50.754Z,172.00
2018-09-04T04:57:50.740Z,184.00
2018-09-04T04:58:50.731Z,200.00
2018-09-04T04:59:50.722Z,216.00
2018-09-04T05:00:50.732Z,228.00
2018-09-04T05:01:50.696Z,240.00
2018-09-04T05:02:50.730Z,260.00
2018-09-04T05:03:50.673Z,272.00
2018-09-04T05:04:50.665Z,288.00
2018-09-04T05:05:50.688Z,304.00
2018-09-04T05:06:50.640Z,316.00
2018-09-04T05:07:50.629Z,332.00
2018-09-04T05:08:50.617Z,348.00
2018-09-04T05:09:50.607Z,368.00
2018-09-04T05:10:50.620Z,376.00
2018-09-04T05:11:50.586Z,392.00
2018-09-04T05:12:50.582Z,408.00
2018-09-04T05:13:50.563Z,420.00
2018-09-04T05:14:50.551Z,436.00
2018-09-04T05:15:50.565Z,448.00
2018-09-04T05:16:50.528Z,464.00
2018-09-04T05:17:50.519Z,480.00
2018-09-04T05:18:50.507Z,500.00
2018-09-04T05:19:50.497Z,520.00
2018-09-04T05:20:50.511Z,536.00
2018-09-04T05:21:50.472Z,556.00
2018-09-04T05:22:50.465Z,576.00
2018-09-04T05:23:50.451Z,592.00
2018-09-04T05:24:50.441Z,608.00
2018-09-04T05:25:50.452Z,624.00
2018-09-04T05:26:50.418Z,632.00
2018-09-04T05:27:50.409Z,644.00
2018-09-04T05:28:50.396Z,656.00
2018-09-04T05:29:50.386Z,672.00
2018-09-04T05:30:50.398Z,692.00
2018-09-04T05:31:50.365Z,716.00
2018-09-04T05:32:50.350Z,736.00
2018-09-04T05:33:50.340Z,756.00
2018-09-04T05:34:50.328Z,780.00
2018-09-04T05:35:50.341Z,804.00
2018-09-04T05:36:50.396Z,800.00
2018-09-04T05:37:50.295Z,824.00
2018-09-04T05:38:50.283Z,848.00
2018-09-04T05:39:50.277Z,880.00
2018-09-04T05:40:50.288Z,908.00
2018-09-04T05:41:50.250Z,928.00
2018-09-04T05:42:50.240Z,944.00
2018-09-04T05:43:50.230Z,964.00
2018-09-04T05:44:50.216Z,980.00
2018-09-04T05:45:50.231Z,1000.00
2018-09-04T05:46:50.201Z,1024.00
2018-09-04T05:47:50.183Z,1044.00
2018-09-04T05:48:50.173Z,1072.00
2018-09-04T05:49:50.162Z,1092.00
2018-09-04T05:50:50.173Z,1120.00
2018-09-04T05:51:50.141Z,1144.00
2018-09-04T05:52:50.127Z,1172.00
2018-09-04T05:53:50.116Z,1208.00
2018-09-04T05:54:50.105Z,1228.00
2018-09-04T05:55:50.118Z,1244.00
2018-09-04T05:56:50.084Z,1260.00
2018-09-04T05:57:50.072Z,1272.00
2018-09-04T05:58:50.060Z,1284.00
2018-09-04T05:59:50.052Z,1300.00
2018-09-04T06:00:50.063Z,1312.00
2018-09-04T06:01:50.036Z,1324.00
2018-09-04T06:02:50.016Z,1328.00
2018-09-04T06:03:50.005Z,1340.00
2018-09-04T06:04:49.992Z,1348.00
2018-09-04T06:05:50.007Z,1356.00
2018-09-04T06:06:49.974Z,1364.00
2018-09-04T06:07:49.960Z,1372.00
2018-09-04T06:08:49.948Z,1376.00
2018-09-04T06:09:49.939Z,1388.00
2018-09-04T06:10:49.953Z,1388.00
2018-09-04T06:11:49.914Z,1376.00
2018-09-04T06:12:49.904Z,1380.00
2018-09-04T06:13:50.023Z,1400.00
2018-09-04T06:14:49.886Z,1432.00
2018-09-04T06:15:49.895Z,1500.00
2018-09-04T06:16:49.860Z,1540.00
2018-09-04T06:17:49.849Z,1588.00
2018-09-04T06:18:49.841Z,1608.00
2018-09-04T06:19:49.864Z,1636.00
2018-09-04T06:20:49.839Z,1652.00
2018-09-04T06:21:49.806Z,1696.00
2018-09-04T06:22:49.792Z,1752.00
2018-09-04T06:23:49.782Z,1712.00
2018-09-04T06:24:49.771Z,1708.00
2018-09-04T06:25:49.762Z,1708.00
2018-09-04T06:26:49.771Z,1684.00
2018-09-04T06:27:49.737Z,1712.00
2018-09-04T06:28:49.727Z,1684.00
2018-09-04T06:29:49.715Z,1756.00
2018-09-04T06:30:49.710Z,1776.00
2018-09-04T06:31:49.717Z,1844.00
2018-09-04T06:32:49.681Z,1840.00
2018-09-04T06:33:49.672Z,1788.00
2018-09-04T06:34:49.659Z,1808.00
2018-09-04T06:35:49.649Z,1860.00
2018-09-04T06:36:49.742Z,1940.00
2018-09-04T06:37:49.627Z,1920.00
2018-09-04T06:38:49.615Z,1996.00
2018-09-04T06:39:49.606Z,1996.00
2018-09-04T06:40:49.594Z,2048.00
2018-09-04T06:41:49.608Z,2028.00
2018-09-04T06:42:49.572Z,2040.00
2018-09-04T06:43:49.560Z,2092.00
2018-09-04T06:44:49.548Z,1984.00
2018-09-04T06:45:49.539Z,2036.00
2018-09-04T06:46:49.550Z,2012.00
2018-09-04T06:47:49.514Z,1988.00
2018-09-04T06:48:49.504Z,2036.00
2018-09-04T06:49:49.494Z,2004.00
2018-09-04T06:50:49.546Z,2080.00
2018-09-04T06:51:49.494Z,2100.00
2018-09-04T06:52:49.461Z,2112.00
2018-09-04T06:53:49.449Z,2164.00
2018-09-04T06:54:49.436Z,2104.00
2018-09-04T06:55:49.425Z,2220.00
2018-09-04T06:56:49.438Z,2204.00
2018-09-04T06:57:49.477Z,2248.00
2018-09-04T06:58:49.392Z,2252.00
2018-09-04T06:59:49.380Z,2240.00
2018-09-04T07:00:49.370Z,2236.00
2018-09-04T07:01:49.383Z,2260.00
2018-09-04T07:02:49.348Z,2320.00
2018-09-04T07:03:49.336Z,2336.00
2018-09-04T07:04:49.328Z,2364.00
2018-09-04T07:05:49.317Z,2392.00
2018-09-04T07:06:49.327Z,2396.00
2018-09-04T07:07:49.291Z,2416.00
2018-09-04T07:08:49.280Z,2420.00
2018-09-04T07:09:49.268Z,2448.00
2018-09-04T07:10:49.257Z,2472.00
2018-09-04T07:11:49.270Z,2484.00
2018-09-04T07:12:49.236Z,2496.00
2018-09-04T07:13:49.224Z,2504.00
2018-09-04T07:14:49.213Z,2504.00
2018-09-04T07:15:49.201Z,2532.00
2018-09-04T07:16:49.216Z,2572.00
2018-09-04T07:17:49.179Z,2576.00
2018-09-04T07:18:49.174Z,2524.00
2018-09-04T07:19:49.157Z,2488.00
2018-09-04T07:20:49.145Z,2484.00
2018-09-04T07:21:49.158Z,2456.00
2018-09-04T07:22:49.123Z,2440.00
2018-09-04T07:23:49.112Z,2424.00
2018-09-04T07:24:49.101Z,2440.00
2018-09-04T07:25:49.089Z,2444.00
2018-09-04T07:26:49.102Z,2444.00
2018-09-04T07:27:49.067Z,2476.00
2018-09-04T07:28:49.057Z,2484.00
2018-09-04T07:29:49.048Z,2516.00
2018-09-04T07:30:49.035Z,2528.00
2018-09-04T07:31:49.047Z,2572.00
2018-09-04T07:32:49.011Z,2620.00
2018-09-04T07:33:49.000Z,2652.00
2018-09-04T07:34:48.990Z,2668.00
2018-09-04T07:35:48.979Z,2668.00
2018-09-04T07:36:48.991Z,2664.00
2018-09-04T07:37:48.955Z,2676.00
2018-09-04T07:38:48.944Z,2720.00
2018-09-04T07:39:48.934Z,2756.00
2018-09-04T07:40:48.922Z,2736.00
2018-09-04T07:41:48.967Z,2784.00
2018-09-04T07:42:48.909Z,2792.00
2018-09-04T07:43:48.891Z,2792.00
2018-09-04T07:44:48.877Z,2800.00
2018-09-04T07:45:48.867Z,2672.00
2018-09-04T07:46:48.880Z,2792.00
2018-09-04T07:47:48.844Z,2656.00
2018-09-04T07:48:48.832Z,2780.00
2018-09-04T07:49:48.824Z,2764.00
2018-09-04T07:50:48.810Z,2792.00
2018-09-04T07:51:49.280Z,2784.00
2018-09-04T07:52:48.789Z,2776.00
2018-09-04T07:53:48.849Z,2724.00
2018-09-04T07:54:48.767Z,2608.00
2018-09-04T07:55:48.754Z,2552.00
2018-09-04T07:56:48.788Z,2516.00
2018-09-04T07:57:48.732Z,2564.00
2018-09-04T07:58:48.720Z,2536.00
2018-09-04T07:59:48.709Z,2560.00
2018-09-04T08:00:48.723Z,2584.00
2018-09-04T08:01:48.714Z,2620.00
2018-09-04T08:02:48.676Z,2668.00
2018-09-04T08:03:48.666Z,2684.00
2018-09-04T08:04:48.654Z,2700.00
2018-09-04T08:05:48.647Z,2676.00
2018-09-04T08:06:48.655Z,2596.00
2018-09-04T08:07:48.623Z,2668.00
2018-09-04T08:08:48.610Z,2616.00
2018-09-04T08:09:48.611Z,2520.00
2018-09-04T08:10:48.594Z,2856.00
2018-09-04T08:11:48.580Z,2880.00
2018-09-04T08:12:48.589Z,2884.00
2018-09-04T08:13:48.556Z,2696.00
2018-09-04T08:14:48.545Z,2944.00
2018-09-04T08:15:48.536Z,2948.00
2018-09-04T08:16:48.532Z,2980.00
2018-09-04T08:17:48.562Z,2992.00
2018-09-04T08:18:48.501Z,3016.00
2018-09-04T08:19:48.488Z,3044.00
2018-09-04T08:20:48.498Z,2480.00
2018-09-04T08:21:48.467Z,3048.00
2018-09-04T08:22:48.479Z,3064.00
2018-09-04T08:23:48.443Z,3072.00
2018-09-04T08:24:48.431Z,3236.00
2018-09-04T08:25:48.425Z,3228.00
2018-09-04T08:26:48.412Z,3204.00
2018-09-04T08:27:48.422Z,3216.00
2018-09-04T08:28:48.387Z,3260.00
2018-09-04T08:29:48.376Z,3228.00
2018-09-04T08:30:48.364Z,3168.00
2018-09-04T08:31:48.354Z,3100.00
2018-09-04T08:32:48.391Z,3088.00
2018-09-04T08:33:48.332Z,3080.00
2018-09-04T08:34:48.320Z,3084.00
2018-09-04T08:35:48.309Z,3104.00
2018-09-04T08:36:48.301Z,3092.00
2018-09-04T08:37:48.313Z,3104.00
2018-09-04T08:38:48.276Z,3108.00
2018-09-04T08:39:48.265Z,3100.00
2018-09-04T08:40:48.254Z,3108.00
2018-09-04T08:41:48.256Z,3100.00
2018-09-04T08:42:48.259Z,3092.00
2018-09-04T08:43:48.220Z,3124.00
2018-09-04T08:44:48.209Z,3088.00
2018-09-04T08:45:48.200Z,3092.00
2018-09-04T08:46:48.188Z,3084.00
2018-09-04T08:47:48.251Z,3100.00
2018-09-04T08:48:48.166Z,3136.00
2018-09-04T08:49:48.154Z,3172.00
2018-09-04T08:50:48.145Z,3188.00
2018-09-04T08:51:48.134Z,3164.00
2018-09-04T08:52:48.147Z,3084.00
2018-09-04T08:53:48.112Z,3208.00
2018-09-04T08:54:48.099Z,3232.00
2018-09-04T08:55:48.090Z,3244.00
2018-09-04T08:56:48.079Z,3280.00
2018-09-04T08:57:48.091Z,3284.00
2018-09-04T09:01:00.313Z,3360.00
2018-09-04T09:02:00.282Z,3352.00
2018-09-04T09:03:00.293Z,3404.00
2018-09-04T09:04:00.261Z,3416.00
2018-09-04T09:05:00.246Z,3448.00
2018-09-04T09:06:00.235Z,3420.00
2018-09-04T09:07:00.227Z,3188.00
2018-09-04T09:08:00.237Z,3020.00
2018-09-04T09:09:00.204Z,2968.00
2018-09-04T09:10:00.252Z,3028.00
2018-09-04T09:11:00.180Z,3180.00
2018-09-04T09:12:00.174Z,3232.00
2018-09-04T09:13:00.178Z,3340.00
2018-09-04T09:14:00.146Z,3432.00
2018-09-04T09:15:00.136Z,3452.00
2018-09-04T09:16:00.122Z,3496.00
2018-09-04T09:17:00.112Z,3576.00
2018-09-04T09:18:00.124Z,3604.00
2018-09-04T09:19:00.094Z,3620.00
2018-09-04T09:20:00.084Z,3596.00
2018-09-04T09:21:00.074Z,3620.00
2018-09-04T09:22:00.059Z,3640.00
2018-09-04T09:23:00.270Z,3708.00
2018-09-04T09:24:00.034Z,3772.00
2018-09-04T09:25:00.023Z,3820.00
2018-09-04T09:26:00.017Z,3820.00
2018-09-04T09:27:00.001Z,3884.00
2018-09-04T09:28:00.013Z,3932.00
2018-09-04T09:28:59.979Z,3892.00
2018-09-04T09:29:59.967Z,3852.00
2018-09-04T09:30:59.956Z,3856.00
2018-09-04T09:31:59.945Z,3800.00
2018-09-04T09:32:59.960Z,3600.00
2018-09-04T09:33:59.924Z,3672.00
2018-09-04T09:34:59.968Z,3744.00
2018-09-04T09:35:59.901Z,3892.00
2018-09-04T09:36:59.977Z,3916.00
2018-09-04T09:37:59.899Z,3876.00
2018-09-04T09:38:59.864Z,3756.00
2018-09-04T09:39:59.855Z,3548.00
2018-09-04T09:40:59.843Z,3540.00
2018-09-04T09:41:59.832Z,3652.00
2018-09-04T09:42:59.843Z,3848.00
2018-09-04T09:43:59.810Z,4212.00
2018-09-04T09:44:59.804Z,4340.00
2018-09-04T09:45:59.787Z,4360.00
2018-09-04T09:46:59.776Z,4276.00
2018-09-04T09:48:10.573Z,4144.00
2018-09-04T09:48:59.753Z,4056.00
2018-09-04T09:49:59.742Z,4012.00
2018-09-04T09:50:59.732Z,4016.00
2018-09-04T09:51:59.719Z,4012.00
2018-09-04T09:52:59.841Z,4016.00
2018-09-04T09:53:59.714Z,4000.00
2018-09-04T09:54:59.686Z,3944.00
2018-09-04T09:55:59.675Z,4008.00
2018-09-04T09:56:59.664Z,4040.00
2018-09-04T09:57:59.674Z,3964.00
2018-09-04T09:58:59.641Z,4052.00
2018-09-04T09:59:59.726Z,3876.00
2018-09-04T10:00:59.709Z,3824.00
2018-09-04T10:01:59.606Z,4092.00
2018-09-04T10:02:59.600Z,4068.00
2018-09-04T10:03:59.698Z,4048.00
2018-09-04T10:04:59.573Z,3976.00
2018-09-04T10:05:59.562Z,4036.00
2018-09-04T10:06:59.549Z,4104.00
2018-09-04T10:07:59.640Z,4064.00
2018-09-04T10:08:59.527Z,4120.00
2018-09-04T10:09:59.518Z,4096.00
2018-09-04T10:10:59.530Z,4052.00
2018-09-04T10:11:59.496Z,4016.00
2018-09-04T10:12:59.489Z,3952.00
2018-09-04T10:13:59.495Z,3956.00
2018-09-04T10:14:59.460Z,4000.00
2018-09-04T10:16:01.037Z,4020.00
2018-09-04T10:16:59.519Z,4072.00
2018-09-04T10:17:59.447Z,4100.00
2018-09-04T10:18:59.438Z,4144.00
2018-09-04T10:19:59.488Z,4172.00
2018-09-04T10:20:59.397Z,4208.00
2018-09-04T10:21:59.382Z,4220.00
2018-09-04T10:22:59.376Z,4304.00
2018-09-04T10:23:59.414Z,4376.00
2018-09-04T10:24:59.346Z,4468.00
2018-09-04T10:25:59.338Z,4572.00
2018-09-04T10:26:59.324Z,4600.00
2018-09-04T10:27:59.316Z,4660.00
2018-09-04T10:28:59.332Z,4704.00
2018-09-04T10:29:59.291Z,4716.00
2018-09-04T10:30:59.279Z,4824.00
2018-09-04T10:31:59.267Z,4700.00
2018-09-04T10:32:59.255Z,4796.00
2018-09-04T10:33:59.271Z,5076.00
2018-09-04T10:34:59.235Z,5176.00
2018-09-04T10:35:59.222Z,5300.00
2018-09-04T10:36:59.240Z,5276.00
2018-09-04T10:37:59.202Z,5836.00
2018-09-04T10:38:59.216Z,5928.00
2018-09-04T10:39:59.222Z,5152.00
2018-09-04T10:40:59.204Z,6380.00
2018-09-04T10:41:59.181Z,6592.00
2018-09-04T10:42:59.169Z,6628.00
2018-09-04T10:43:59.156Z,6300.00
2018-09-04T10:44:59.122Z,6188.00
2018-09-04T10:45:59.112Z,5880.00
2018-09-04T10:46:59.099Z,5496.00
2018-09-04T10:47:59.090Z,5212.00
2018-09-04T10:48:59.557Z,5108.00
2018-09-04T10:49:59.067Z,5264.00
2018-09-04T10:50:59.055Z,5444.00
2018-09-04T10:51:59.045Z,5580.00
2018-09-04T10:52:59.033Z,5676.00
2018-09-04T10:53:59.045Z,6036.00
2018-09-04T10:54:59.012Z,6688.00
2018-09-04T10:55:58.998Z,7444.00
2018-09-04T10:56:58.994Z,7880.00
2018-09-04T10:57:59.070Z,7996.00
2018-09-04T10:58:58.990Z,7372.00
2018-09-04T10:59:58.955Z,7252.00
2018-09-04T11:00:59.017Z,7380.00
2018-09-04T11:01:58.933Z,7512.00
2018-09-04T11:02:58.926Z,7860.00
2018-09-04T11:03:58.951Z,7952.00
2018-09-04T11:04:58.900Z,7772.00
2018-09-04T11:05:58.893Z,7500.00
2018-09-04T11:06:58.876Z,7340.00
2018-09-04T11:07:58.864Z,7544.00
2018-09-04T11:08:58.888Z,7696.00
2018-09-04T11:09:58.951Z,7836.00
2018-09-04T11:10:58.831Z,8020.00
2018-09-04T11:11:58.821Z,7900.00
2018-09-04T11:12:58.809Z,7828.00
2018-09-04T11:13:58.820Z,7952.00
2018-09-04T11:14:58.787Z,8132.00
2018-09-04T11:15:58.774Z,8108.00
2018-09-04T11:16:58.764Z,8120.00
2018-09-04T11:17:58.752Z,7912.00
2018-09-04T11:18:58.765Z,7916.00
2018-09-04T11:19:58.730Z,7416.00
2018-09-04T11:20:58.718Z,7904.00
2018-09-04T11:21:58.707Z,7964.00
2018-09-04T11:22:58.696Z,6968.00
2018-09-04T11:23:58.713Z,6916.00
2018-09-04T11:24:58.673Z,6820.00
2018-09-04T11:25:58.665Z,7164.00
2018-09-04T11:26:58.651Z,7244.00
2018-09-04T11:27:58.641Z,7344.00
2018-09-04T11:28:58.653Z,7620.00
2018-09-04T11:29:58.618Z,7184.00
2018-09-04T11:30:58.607Z,7636.00
2018-09-04T11:31:58.595Z,7468.00
2018-09-04T11:32:58.589Z,7020.00
2018-09-04T11:33:58.601Z,7172.00
2018-09-04T11:34:58.562Z,7844.00
2018-09-04T11:35:58.550Z,7100.00
2018-09-04T11:36:58.539Z,5532.00
2018-09-04T11:37:58.530Z,6828.00
2018-09-04T11:38:58.540Z,7112.00
2018-09-04T11:39:58.506Z,7208.00
2018-09-04T11:40:58.495Z,7204.00
2018-09-04T11:41:58.485Z,7040.00
2018-09-04T11:42:58.472Z,7212.00
2018-09-04T11:43:58.484Z,7300.00
2018-09-04T11:44:58.450Z,7100.00
2018-09-04T11:45:58.440Z,6836.00
2018-09-04T11:46:58.541Z,7152.00
2018-09-04T11:47:58.415Z,9244.00
2018-09-04T11:48:58.429Z,10208.00
2018-09-04T11:49:58.395Z,10420.00
2018-09-04T11:50:58.382Z,10204.00
2018-09-04T11:51:58.371Z,9656.00
2018-09-04T11:52:58.365Z,10200.00
2018-09-04T11:53:58.352Z,10620.00
2018-09-04T11:54:58.362Z,10696.00
2018-09-04T11:55:58.328Z,10544.00
2018-09-04T11:56:58.319Z,10488.00
2018-09-04T11:57:58.306Z,10396.00
2018-09-04T11:58:58.296Z,8228.00
2018-09-04T11:59:58.310Z,9008.00
2018-09-04T12:00:58.275Z,9648.00
2018-09-04T12:01:58.265Z,10308.00
2018-09-04T12:02:58.254Z,10428.00
2018-09-04T12:03:58.243Z,10380.00
2018-09-04T12:04:58.253Z,8632.00
2018-09-04T12:05:58.220Z,10932.00
2018-09-04T12:06:58.209Z,11332.00
2018-09-04T12:07:58.198Z,11840.00
2018-09-04T12:08:58.212Z,12460.00
2018-09-04T12:09:58.175Z,12028.00
2018-09-04T12:10:58.165Z,12428.00
2018-09-04T12:11:58.155Z,12504.00
2018-09-04T12:12:58.174Z,11596.00
2018-09-04T12:13:58.169Z,11600.00
2018-09-04T12:14:58.122Z,10832.00
2018-09-04T12:15:58.109Z,10080.00
2018-09-04T12:16:58.099Z,12412.00
2018-09-04T12:17:58.091Z,11736.00
2018-09-04T12:18:58.143Z,11792.00
2018-09-04T12:19:58.087Z,12356.00
2018-09-04T12:20:58.190Z,10612.00
2018-09-04T12:21:58.041Z,9216.00
2018-09-04T12:22:58.032Z,11564.00
2018-09-04T12:23:58.018Z,10648.00
2018-09-04T12:24:58.032Z,8780.00
2018-09-04T12:25:57.995Z,11092.00
2018-09-04T12:26:57.984Z,10400.00
2018-09-04T12:27:57.974Z,8964.00
2018-09-04T12:28:57.962Z,9708.00
2018-09-04T12:29:57.973Z,13572.00
2018-09-04T12:30:57.939Z,10148.00
2018-09-04T12:31:57.930Z,9168.00
2018-09-04T12:32:57.916Z,11300.00
2018-09-04T12:33:57.941Z,11384.00
2018-09-04T12:34:57.919Z,9884.00